sensor_id;sensor_type;location;lat;lon;timestamp;P1;durP1;ratioP1;P2;durP2;ratioP2
38085;SDS011;23896;50.678;10.924;2023-07-20T00:00:11;3.78;;;2.55;;
38085;SDS011;23896;50.678;10.924;2023-07-20T00:02:41;3.35;;;2.03;;
38085;SDS011;23896;50.678;10.924;2023-07-20T00:05:08;2.42;;;1.92;;
38085;SDS011;23896;50.678;10.924;2023-07-20T00:07:34;2.95;;;2.00;;
38085;SDS011;23896;50.678;10.924;2023-07-20T00:10:00;2.25;;;2.15;;
38085;SDS011;23896;50.678;10.924;2023-07-20T00:12:26;2.47;;;2.03;;
38085;SDS011;23896;50.678;10.924;2023-07-20T00:14:52;4.53;;;2.40;;
38085;SDS011;23896;50.678;10.924;2023-07-20T00:17:19;4.93;;;2.22;;
38085;SDS011;23896;50.678;10.924;2023-07-20T00:19:46;3.35;;;2.70;;
38085;SDS011;23896;50.678;10.924;2023-07-20T00:22:12;3.35;;;2.33;;
38085;SDS011;23896;50.678;10.924;2023-07-20T00:24:38;2.90;;;2.55;;
38085;SDS011;23896;50.678;10.924;2023-07-20T00:27:04;2.55;;;2.20;;
38085;SDS011;23896;50.678;10.924;2023-07-20T00:29:31;2.55;;;2.35;;
38085;SDS011;23896;50.678;10.924;2023-07-20T00:31:58;4.00;;;2.47;;
38085;SDS011;23896;50.678;10.924;2023-07-20T00:34:24;3.00;;;2.78;;
38085;SDS011;23896;50.678;10.924;2023-07-20T00:36:50;3.70;;;2.17;;
38085;SDS011;23896;50.678;10.924;2023-07-20T00:39:16;3.17;;;2.53;;
38085;SDS011;23896;50.678;10.924;2023-07-20T00:41:42;4.22;;;2.33;;
38085;SDS011;23896;50.678;10.924;2023-07-20T00:44:08;2.90;;;2.60;;
38085;SDS011;23896;50.678;10.924;2023-07-20T00:46:35;2.90;;;2.70;;
38085;SDS011;23896;50.678;10.924;2023-07-20T00:49:01;2.25;;;2.13;;
38085;SDS011;23896;50.678;10.924;2023-07-20T00:51:28;3.67;;;2.72;;
38085;SDS011;23896;50.678;10.924;2023-07-20T00:53:54;3.03;;;2.40;;
38085;SDS011;23896;50.678;10.924;2023-07-20T00:56:21;2.40;;;2.20;;
38085;SDS011;23896;50.678;10.924;2023-07-20T00:58:47;2.60;;;2.40;;
38085;SDS011;23896;50.678;10.924;2023-07-20T01:01:14;2.88;;;2.30;;
38085;SDS011;23896;50.678;10.924;2023-07-20T01:03:40;2.47;;;2.28;;
38085;SDS011;23896;50.678;10.924;2023-07-20T01:06:10;2.42;;;1.90;;
38085;SDS011;23896;50.678;10.924;2023-07-20T01:08:47;3.45;;;2.15;;
38085;SDS011;23896;50.678;10.924;2023-07-20T01:11:24;2.97;;;2.25;;
38085;SDS011;23896;50.678;10.924;2023-07-20T01:13:54;3.50;;;2.35;;
38085;SDS011;23896;50.678;10.924;2023-07-20T01:16:21;4.47;;;2.20;;
38085;SDS011;23896;50.678;10.924;2023-07-20T01:18:47;2.60;;;2.40;;
38085;SDS011;23896;50.678;10.924;2023-07-20T01:21:15;3.28;;;2.42;;
38085;SDS011;23896;50.678;10.924;2023-07-20T01:24:04;3.75;;;2.42;;
38085;SDS011;23896;50.678;10.924;2023-07-20T01:26:36;2.50;;;1.70;;
38085;SDS011;23896;50.678;10.924;2023-07-20T01:29:22;2.67;;;2.10;;
38085;SDS011;23896;50.678;10.924;2023-07-20T01:31:51;3.45;;;2.65;;
38085;SDS011;23896;50.678;10.924;2023-07-20T01:34:22;2.50;;;2.30;;
38085;SDS011;23896;50.678;10.924;2023-07-20T01:36:49;1.90;;;1.80;;
38085;SDS011;23896;50.678;10.924;2023-07-20T01:39:16;2.65;;;2.30;;
38085;SDS011;23896;50.678;10.924;2023-07-20T01:41:42;4.03;;;2.33;;
38085;SDS011;23896;50.678;10.924;2023-07-20T01:44:09;4.25;;;2.65;;
38085;SDS011;23896;50.678;10.924;2023-07-20T01:46:35;2.35;;;2.08;;
38085;SDS011;23896;50.678;10.924;2023-07-20T01:49:02;4.18;;;2.28;;
38085;SDS011;23896;50.678;10.924;2023-07-20T01:51:28;2.60;;;2.10;;
38085;SDS011;23896;50.678;10.924;2023-07-20T01:53:54;2.35;;;2.08;;
38085;SDS011;23896;50.678;10.924;2023-07-20T01:56:20;2.05;;;1.90;;
38085;SDS011;23896;50.678;10.924;2023-07-20T01:58:46;2.20;;;2.00;;
38085;SDS011;23896;50.678;10.924;2023-07-20T02:01:12;2.72;;;2.10;;
38085;SDS011;23896;50.678;10.924;2023-07-20T02:03:39;3.00;;;2.13;;
38085;SDS011;23896;50.678;10.924;2023-07-20T02:06:05;2.38;;;2.17;;
38085;SDS011;23896;50.678;10.924;2023-07-20T02:08:31;3.42;;;3.13;;
38085;SDS011;23896;50.678;10.924;2023-07-20T02:10:58;9.15;;;5.45;;
38085;SDS011;23896;50.678;10.924;2023-07-20T02:13:24;5.28;;;4.63;;
38085;SDS011;23896;50.678;10.924;2023-07-20T02:15:50;3.63;;;2.70;;
38085;SDS011;23896;50.678;10.924;2023-07-20T02:18:16;2.63;;;2.10;;
38085;SDS011;23896;50.678;10.924;2023-07-20T02:20:42;6.72;;;2.60;;
38085;SDS011;23896;50.678;10.924;2023-07-20T02:23:10;2.70;;;2.10;;
38085;SDS011;23896;50.678;10.924;2023-07-20T02:25:36;2.75;;;2.22;;
38085;SDS011;23896;50.678;10.924;2023-07-20T02:28:03;5.00;;;1.88;;
38085;SDS011;23896;50.678;10.924;2023-07-20T02:30:30;4.15;;;2.60;;
38085;SDS011;23896;50.678;10.924;2023-07-20T02:32:56;2.13;;;1.88;;
38085;SDS011;23896;50.678;10.924;2023-07-20T02:35:23;2.40;;;2.22;;
38085;SDS011;23896;50.678;10.924;2023-07-20T02:37:49;4.15;;;3.00;;
38085;SDS011;23896;50.678;10.924;2023-07-20T02:40:16;3.90;;;3.53;;
38085;SDS011;23896;50.678;10.924;2023-07-20T02:42:42;5.00;;;3.53;;
38085;SDS011;23896;50.678;10.924;2023-07-20T02:45:08;3.80;;;3.47;;
38085;SDS011;23896;50.678;10.924;2023-07-20T02:47:34;3.17;;;2.88;;
38085;SDS011;23896;50.678;10.924;2023-07-20T02:50:01;5.65;;;5.00;;
38085;SDS011;23896;50.678;10.924;2023-07-20T02:52:27;2.63;;;2.35;;
38085;SDS011;23896;50.678;10.924;2023-07-20T02:54:54;4.65;;;2.33;;
38085;SDS011;23896;50.678;10.924;2023-07-20T02:57:20;2.70;;;2.40;;
38085;SDS011;23896;50.678;10.924;2023-07-20T02:59:46;3.15;;;2.78;;
38085;SDS011;23896;50.678;10.924;2023-07-20T03:02:13;5.97;;;3.17;;
38085;SDS011;23896;50.678;10.924;2023-07-20T03:04:39;3.60;;;3.00;;
38085;SDS011;23896;50.678;10.924;2023-07-20T03:07:05;6.13;;;3.75;;
38085;SDS011;23896;50.678;10.924;2023-07-20T03:09:32;5.32;;;3.15;;
38085;SDS011;23896;50.678;10.924;2023-07-20T03:11:58;6.03;;;3.05;;
38085;SDS011;23896;50.678;10.924;2023-07-20T03:14:24;3.47;;;2.80;;
38085;SDS011;23896;50.678;10.924;2023-07-20T03:16:51;5.82;;;2.42;;
38085;SDS011;23896;50.678;10.924;2023-07-20T03:19:17;3.35;;;2.20;;
38085;SDS011;23896;50.678;10.924;2023-07-20T03:21:43;2.30;;;2.10;;
38085;SDS011;23896;50.678;10.924;2023-07-20T03:24:12;2.40;;;2.20;;
38085;SDS011;23896;50.678;10.924;2023-07-20T03:26:38;1.83;;;1.73;;
38085;SDS011;23896;50.678;10.924;2023-07-20T03:29:05;3.75;;;2.45;;
38085;SDS011;23896;50.678;10.924;2023-07-20T03:31:32;3.83;;;2.50;;
38085;SDS011;23896;50.678;10.924;2023-07-20T03:34:01;2.33;;;2.13;;
38085;SDS011;23896;50.678;10.924;2023-07-20T03:36:27;3.65;;;2.08;;
38085;SDS011;23896;50.678;10.924;2023-07-20T03:38:54;2.42;;;2.20;;
38085;SDS011;23896;50.678;10.924;2023-07-20T03:41:20;2.47;;;2.20;;
38085;SDS011;23896;50.678;10.924;2023-07-20T03:43:47;3.83;;;2.90;;
38085;SDS011;23896;50.678;10.924;2023-07-20T03:46:14;2.50;;;2.33;;
38085;SDS011;23896;50.678;10.924;2023-07-20T03:48:40;3.30;;;2.85;;
38085;SDS011;23896;50.678;10.924;2023-07-20T03:51:06;3.08;;;2.70;;
38085;SDS011;23896;50.678;10.924;2023-07-20T03:53:34;2.90;;;2.70;;
38085;SDS011;23896;50.678;10.924;2023-07-20T03:56:02;3.55;;;2.47;;
38085;SDS011;23896;50.678;10.924;2023-07-20T03:58:30;3.42;;;2.22;;
38085;SDS011;23896;50.678;10.924;2023-07-20T04:00:57;6.15;;;3.03;;
38085;SDS011;23896;50.678;10.924;2023-07-20T04:03:24;3.75;;;2.65;;
38085;SDS011;23896;50.678;10.924;2023-07-20T04:05:53;5.72;;;2.80;;
38085;SDS011;23896;50.678;10.924;2023-07-20T04:08:21;3.75;;;2.78;;
38085;SDS011;23896;50.678;10.924;2023-07-20T04:10:47;3.38;;;2.80;;
38085;SDS011;23896;50.678;10.924;2023-07-20T04:13:14;3.80;;;3.13;;
38085;SDS011;23896;50.678;10.924;2023-07-20T04:15:44;3.45;;;2.90;;
38085;SDS011;23896;50.678;10.924;2023-07-20T04:18:10;4.20;;;3.05;;
38085;SDS011;23896;50.678;10.924;2023-07-20T04:20:36;3.15;;;2.80;;
38085;SDS011;23896;50.678;10.924;2023-07-20T04:23:06;3.03;;;2.83;;
38085;SDS011;23896;50.678;10.924;2023-07-20T04:25:32;4.25;;;2.75;;
38085;SDS011;23896;50.678;10.924;2023-07-20T04:28:04;3.65;;;3.35;;
38085;SDS011;23896;50.678;10.924;2023-07-20T04:30:34;4.38;;;2.60;;
38085;SDS011;23896;50.678;10.924;2023-07-20T04:33:01;3.15;;;2.90;;
38085;SDS011;23896;50.678;10.924;2023-07-20T04:38:08;3.55;;;3.22;;
38085;SDS011;23896;50.678;10.924;2023-07-20T04:40:35;5.53;;;3.53;;
38085;SDS011;23896;50.678;10.924;2023-07-20T04:43:03;7.72;;;4.03;;
38085;SDS011;23896;50.678;10.924;2023-07-20T04:45:31;4.97;;;4.13;;
38085;SDS011;23896;50.678;10.924;2023-07-20T04:47:57;4.32;;;3.60;;
38085;SDS011;23896;50.678;10.924;2023-07-20T04:50:27;7.32;;;3.78;;
38085;SDS011;23896;50.678;10.924;2023-07-20T04:52:53;4.30;;;4.00;;
38085;SDS011;23896;50.678;10.924;2023-07-20T04:55:21;4.10;;;3.53;;
38085;SDS011;23896;50.678;10.924;2023-07-20T04:57:51;3.90;;;3.50;;
38085;SDS011;23896;50.678;10.924;2023-07-20T05:00:24;3.97;;;3.60;;
38085;SDS011;23896;50.678;10.924;2023-07-20T05:02:50;6.53;;;3.75;;
38085;SDS011;23896;50.678;10.924;2023-07-20T05:05:18;3.53;;;3.28;;
38085;SDS011;23896;50.678;10.924;2023-07-20T05:07:45;6.07;;;3.78;;
38085;SDS011;23896;50.678;10.924;2023-07-20T05:10:11;6.50;;;5.28;;
38085;SDS011;23896;50.678;10.924;2023-07-20T05:12:38;4.47;;;3.60;;
38085;SDS011;23896;50.678;10.924;2023-07-20T05:15:04;3.90;;;3.60;;
38085;SDS011;23896;50.678;10.924;2023-07-20T05:17:30;4.15;;;3.53;;
38085;SDS011;23896;50.678;10.924;2023-07-20T05:19:56;5.10;;;3.80;;
38085;SDS011;23896;50.678;10.924;2023-07-20T05:22:23;8.25;;;4.05;;
38085;SDS011;23896;50.678;10.924;2023-07-20T05:24:49;4.28;;;3.50;;
38085;SDS011;23896;50.678;10.924;2023-07-20T05:27:16;5.50;;;4.65;;
38085;SDS011;23896;50.678;10.924;2023-07-20T05:29:45;4.38;;;3.90;;
38085;SDS011;23896;50.678;10.924;2023-07-20T05:32:12;4.80;;;4.20;;
38085;SDS011;23896;50.678;10.924;2023-07-20T05:34:41;6.35;;;4.40;;
38085;SDS011;23896;50.678;10.924;2023-07-20T05:37:08;4.05;;;3.75;;
38085;SDS011;23896;50.678;10.924;2023-07-20T05:39:34;6.00;;;4.75;;
38085;SDS011;23896;50.678;10.924;2023-07-20T05:42:03;6.75;;;6.15;;
38085;SDS011;23896;50.678;10.924;2023-07-20T05:44:35;14.55;;;9.98;;
38085;SDS011;23896;50.678;10.924;2023-07-20T05:47:01;7.07;;;6.38;;
38085;SDS011;23896;50.678;10.924;2023-07-20T05:49:31;6.07;;;4.18;;
38085;SDS011;23896;50.678;10.924;2023-07-20T05:51:57;5.22;;;3.78;;
38085;SDS011;23896;50.678;10.924;2023-07-20T05:54:30;3.72;;;3.33;;
38085;SDS011;23896;50.678;10.924;2023-07-20T05:56:56;5.13;;;4.32;;
38085;SDS011;23896;50.678;10.924;2023-07-20T05:59:26;4.90;;;3.78;;
38085;SDS011;23896;50.678;10.924;2023-07-20T06:01:55;7.65;;;3.17;;
38085;SDS011;23896;50.678;10.924;2023-07-20T06:04:24;5.15;;;3.20;;
38085;SDS011;23896;50.678;10.924;2023-07-20T06:06:50;5.20;;;3.67;;
38085;SDS011;23896;50.678;10.924;2023-07-20T06:09:16;3.95;;;3.08;;
38085;SDS011;23896;50.678;10.924;2023-07-20T06:11:42;3.72;;;3.33;;
38085;SDS011;23896;50.678;10.924;2023-07-20T06:14:08;4.47;;;3.15;;
38085;SDS011;23896;50.678;10.924;2023-07-20T06:16:35;4.53;;;2.65;;
38085;SDS011;23896;50.678;10.924;2023-07-20T06:19:01;3.38;;;2.88;;
38085;SDS011;23896;50.678;10.924;2023-07-20T06:21:32;4.35;;;3.03;;
38085;SDS011;23896;50.678;10.924;2023-07-20T06:23:58;2.72;;;2.28;;
38085;SDS011;23896;50.678;10.924;2023-07-20T06:26:24;3.78;;;2.28;;
38085;SDS011;23896;50.678;10.924;2023-07-20T06:28:50;4.68;;;2.50;;
38085;SDS011;23896;50.678;10.924;2023-07-20T06:31:16;5.63;;;2.90;;
38085;SDS011;23896;50.678;10.924;2023-07-20T06:33:43;4.03;;;2.63;;
38085;SDS011;23896;50.678;10.924;2023-07-20T06:36:11;7.28;;;2.60;;
38085;SDS011;23896;50.678;10.924;2023-07-20T06:38:39;2.53;;;2.05;;
38085;SDS011;23896;50.678;10.924;2023-07-20T06:41:10;4.43;;;2.95;;
38085;SDS011;23896;50.678;10.924;2023-07-20T06:43:36;3.15;;;2.50;;
38085;SDS011;23896;50.678;10.924;2023-07-20T06:46:03;3.47;;;2.58;;
38085;SDS011;23896;50.678;10.924;2023-07-20T06:48:29;3.05;;;2.80;;
38085;SDS011;23896;50.678;10.924;2023-07-20T06:50:55;3.03;;;2.78;;
38085;SDS011;23896;50.678;10.924;2023-07-20T06:53:21;3.10;;;2.85;;
38085;SDS011;23896;50.678;10.924;2023-07-20T06:55:47;3.55;;;2.90;;
38085;SDS011;23896;50.678;10.924;2023-07-20T06:58:14;2.72;;;2.53;;
38085;SDS011;23896;50.678;10.924;2023-07-20T07:00:40;2.97;;;2.28;;
38085;SDS011;23896;50.678;10.924;2023-07-20T07:03:06;3.75;;;3.00;;
38085;SDS011;23896;50.678;10.924;2023-07-20T07:05:35;2.53;;;2.38;;
38085;SDS011;23896;50.678;10.924;2023-07-20T07:08:01;4.05;;;2.90;;
38085;SDS011;23896;50.678;10.924;2023-07-20T07:10:27;3.20;;;2.85;;
38085;SDS011;23896;50.678;10.924;2023-07-20T07:12:54;5.45;;;2.67;;
38085;SDS011;23896;50.678;10.924;2023-07-20T07:15:20;3.40;;;2.88;;
38085;SDS011;23896;50.678;10.924;2023-07-20T07:17:46;2.53;;;2.33;;
38085;SDS011;23896;50.678;10.924;2023-07-20T07:20:13;3.08;;;2.53;;
38085;SDS011;23896;50.678;10.924;2023-07-20T07:22:39;3.40;;;3.03;;
38085;SDS011;23896;50.678;10.924;2023-07-20T07:25:09;2.80;;;2.50;;
38085;SDS011;23896;50.678;10.924;2023-07-20T07:27:35;3.45;;;2.90;;
38085;SDS011;23896;50.678;10.924;2023-07-20T07:30:03;4.72;;;3.15;;
38085;SDS011;23896;50.678;10.924;2023-07-20T07:32:29;6.80;;;3.03;;
38085;SDS011;23896;50.678;10.924;2023-07-20T07:34:55;3.28;;;2.97;;
38085;SDS011;23896;50.678;10.924;2023-07-20T07:37:23;4.43;;;3.22;;
38085;SDS011;23896;50.678;10.924;2023-07-20T07:39:52;4.25;;;2.90;;
38085;SDS011;23896;50.678;10.924;2023-07-20T07:42:18;3.72;;;2.70;;
38085;SDS011;23896;50.678;10.924;2023-07-20T07:44:45;3.38;;;2.80;;
38085;SDS011;23896;50.678;10.924;2023-07-20T07:47:11;5.47;;;4.90;;
38085;SDS011;23896;50.678;10.924;2023-07-20T07:49:41;4.07;;;3.63;;
38085;SDS011;23896;50.678;10.924;2023-07-20T07:52:08;2.92;;;2.70;;
38085;SDS011;23896;50.678;10.924;2023-07-20T07:54:34;4.88;;;2.67;;
38085;SDS011;23896;50.678;10.924;2023-07-20T07:57:03;5.13;;;2.65;;
38085;SDS011;23896;50.678;10.924;2023-07-20T07:59:29;4.43;;;2.70;;
38085;SDS011;23896;50.678;10.924;2023-07-20T08:01:56;3.22;;;2.60;;
38085;SDS011;23896;50.678;10.924;2023-07-20T08:04:23;2.90;;;2.67;;
38085;SDS011;23896;50.678;10.924;2023-07-20T08:06:49;3.38;;;2.88;;
38085;SDS011;23896;50.678;10.924;2023-07-20T08:09:19;5.25;;;2.22;;
38085;SDS011;23896;50.678;10.924;2023-07-20T08:11:45;4.72;;;2.67;;
38085;SDS011;23896;50.678;10.924;2023-07-20T08:14:18;2.45;;;1.77;;
38085;SDS011;23896;50.678;10.924;2023-07-20T08:16:44;3.15;;;1.38;;
38085;SDS011;23896;50.678;10.924;2023-07-20T08:19:11;1.63;;;1.48;;
38085;SDS011;23896;50.678;10.924;2023-07-20T08:21:40;2.80;;;1.83;;
38085;SDS011;23896;50.678;10.924;2023-07-20T08:24:06;1.83;;;1.55;;
38085;SDS011;23896;50.678;10.924;2023-07-20T08:26:33;4.28;;;2.60;;
38085;SDS011;23896;50.678;10.924;2023-07-20T08:28:59;2.92;;;2.20;;
38085;SDS011;23896;50.678;10.924;2023-07-20T08:31:25;3.00;;;1.80;;
38085;SDS011;23896;50.678;10.924;2023-07-20T08:33:53;3.33;;;2.63;;
38085;SDS011;23896;50.678;10.924;2023-07-20T08:36:21;4.15;;;2.00;;
38085;SDS011;23896;50.678;10.924;2023-07-20T08:38:47;4.80;;;2.40;;
38085;SDS011;23896;50.678;10.924;2023-07-20T08:41:14;5.88;;;2.00;;
38085;SDS011;23896;50.678;10.924;2023-07-20T08:43:44;2.35;;;2.15;;
38085;SDS011;23896;50.678;10.924;2023-07-20T08:46:12;3.03;;;1.98;;
38085;SDS011;23896;50.678;10.924;2023-07-20T08:48:40;1.88;;;1.65;;
38085;SDS011;23896;50.678;10.924;2023-07-20T08:51:07;3.65;;;1.63;;
38085;SDS011;23896;50.678;10.924;2023-07-20T08:53:34;2.38;;;2.15;;
38085;SDS011;23896;50.678;10.924;2023-07-20T08:56:02;3.80;;;1.90;;
38085;SDS011;23896;50.678;10.924;2023-07-20T08:58:30;2.38;;;2.17;;
38085;SDS011;23896;50.678;10.924;2023-07-20T09:00:56;2.08;;;1.95;;
38085;SDS011;23896;50.678;10.924;2023-07-20T09:03:31;4.63;;;2.00;;
38085;SDS011;23896;50.678;10.924;2023-07-20T09:05:57;4.85;;;2.05;;
38085;SDS011;23896;50.678;10.924;2023-07-20T09:08:23;3.35;;;2.28;;
38085;SDS011;23896;50.678;10.924;2023-07-20T09:10:52;3.45;;;2.10;;
38085;SDS011;23896;50.678;10.924;2023-07-20T09:13:18;4.97;;;2.03;;
38085;SDS011;23896;50.678;10.924;2023-07-20T09:15:46;2.17;;;1.98;;
38085;SDS011;23896;50.678;10.924;2023-07-20T09:18:14;2.50;;;2.08;;
38085;SDS011;23896;50.678;10.924;2023-07-20T09:21:06;4.78;;;1.98;;
38085;SDS011;23896;50.678;10.924;2023-07-20T09:23:34;3.35;;;2.03;;
38085;SDS011;23896;50.678;10.924;2023-07-20T09:26:00;4.93;;;2.22;;
38085;SDS011;23896;50.678;10.924;2023-07-20T09:28:27;3.92;;;2.33;;
38085;SDS011;23896;50.678;10.924;2023-07-20T09:30:54;1.88;;;1.75;;
38085;SDS011;23896;50.678;10.924;2023-07-20T09:33:22;5.28;;;2.42;;
38085;SDS011;23896;50.678;10.924;2023-07-20T09:35:48;3.35;;;2.30;;
38085;SDS011;23896;50.678;10.924;2023-07-20T09:38:14;4.82;;;2.65;;
38085;SDS011;23896;50.678;10.924;2023-07-20T09:40:40;3.70;;;1.98;;
38085;SDS011;23896;50.678;10.924;2023-07-20T09:43:10;2.38;;;1.85;;
38085;SDS011;23896;50.678;10.924;2023-07-20T09:45:39;3.10;;;2.80;;
38085;SDS011;23896;50.678;10.924;2023-07-20T09:48:07;3.58;;;2.60;;
38085;SDS011;23896;50.678;10.924;2023-07-20T09:50:40;3.38;;;2.40;;
38085;SDS011;23896;50.678;10.924;2023-07-20T09:53:12;2.40;;;2.20;;
38085;SDS011;23896;50.678;10.924;2023-07-20T09:55:39;2.63;;;2.35;;
38085;SDS011;23896;50.678;10.924;2023-07-20T09:58:09;4.13;;;2.33;;
38085;SDS011;23896;50.678;10.924;2023-07-20T10:00:39;3.88;;;2.33;;
38085;SDS011;23896;50.678;10.924;2023-07-20T10:03:06;2.63;;;2.33;;
38085;SDS011;23896;50.678;10.924;2023-07-20T10:05:33;2.75;;;2.55;;
38085;SDS011;23896;50.678;10.924;2023-07-20T10:08:00;2.38;;;2.15;;
38085;SDS011;23896;50.678;10.924;2023-07-20T10:10:27;2.80;;;2.45;;
38085;SDS011;23896;50.678;10.924;2023-07-20T10:12:54;2.88;;;2.63;;
38085;SDS011;23896;50.678;10.924;2023-07-20T10:15:24;3.42;;;2.42;;
38085;SDS011;23896;50.678;10.924;2023-07-20T10:17:59;2.70;;;2.40;;
38085;SDS011;23896;50.678;10.924;2023-07-20T10:20:28;2.50;;;2.30;;
38085;SDS011;23896;50.678;10.924;2023-07-20T10:22:58;3.08;;;2.50;;
38085;SDS011;23896;50.678;10.924;2023-07-20T10:25:25;3.55;;;2.35;;
38085;SDS011;23896;50.678;10.924;2023-07-20T10:27:54;3.10;;;2.50;;
38085;SDS011;23896;50.678;10.924;2023-07-20T10:30:24;4.03;;;2.83;;
38085;SDS011;23896;50.678;10.924;2023-07-20T10:32:50;3.92;;;2.15;;
38085;SDS011;23896;50.678;10.924;2023-07-20T10:35:17;3.75;;;2.85;;
38085;SDS011;23896;50.678;10.924;2023-07-20T10:37:54;3.05;;;2.63;;
38085;SDS011;23896;50.678;10.924;2023-07-20T10:40:26;3.53;;;2.95;;
38085;SDS011;23896;50.678;10.924;2023-07-20T10:42:56;6.35;;;2.70;;
38085;SDS011;23896;50.678;10.924;2023-07-20T10:45:32;3.17;;;2.30;;
38085;SDS011;23896;50.678;10.924;2023-07-20T10:48:04;3.42;;;2.20;;
38085;SDS011;23896;50.678;10.924;2023-07-20T10:50:32;3.78;;;2.05;;
38085;SDS011;23896;50.678;10.924;2023-07-20T10:53:04;3.92;;;2.30;;
38085;SDS011;23896;50.678;10.924;2023-07-20T10:55:32;3.72;;;1.90;;
38085;SDS011;23896;50.678;10.924;2023-07-20T10:58:07;2.95;;;1.90;;
38085;SDS011;23896;50.678;10.924;2023-07-20T11:00:35;7.30;;;1.85;;
38085;SDS011;23896;50.678;10.924;2023-07-20T11:03:02;3.88;;;2.20;;
38085;SDS011;23896;50.678;10.924;2023-07-20T11:05:33;6.53;;;2.42;;
38085;SDS011;23896;50.678;10.924;2023-07-20T11:08:00;2.70;;;2.13;;
38085;SDS011;23896;50.678;10.924;2023-07-20T11:10:29;2.30;;;2.08;;
38085;SDS011;23896;50.678;10.924;2023-07-20T11:15:47;1.75;;;1.65;;
38085;SDS011;23896;50.678;10.924;2023-07-20T11:18:13;1.52;;;1.40;;
38085;SDS011;23896;50.678;10.924;2023-07-20T11:20:40;2.17;;;1.98;;
38085;SDS011;23896;50.678;10.924;2023-07-20T11:23:13;2.47;;;1.63;;
38085;SDS011;23896;50.678;10.924;2023-07-20T11:25:40;2.40;;;1.50;;
38085;SDS011;23896;50.678;10.924;2023-07-20T11:28:07;2.13;;;1.60;;
38085;SDS011;23896;50.678;10.924;2023-07-20T11:30:50;2.97;;;2.25;;
38085;SDS011;23896;50.678;10.924;2023-07-20T11:33:20;2.03;;;1.92;;
38085;SDS011;23896;50.678;10.924;2023-07-20T11:35:56;2.28;;;1.95;;
38085;SDS011;23896;50.678;10.924;2023-07-20T11:38:48;2.20;;;2.10;;
38085;SDS011;23896;50.678;10.924;2023-07-20T13:37:48;2.42;;;1.60;;
38085;SDS011;23896;50.678;10.924;2023-07-20T13:40:15;3.97;;;1.65;;
38085;SDS011;23896;50.678;10.924;2023-07-20T13:42:44;2.17;;;1.98;;
38085;SDS011;23896;50.678;10.924;2023-07-20T13:45:10;4.00;;;1.60;;
38085;SDS011;23896;50.678;10.924;2023-07-20T13:47:36;2.28;;;2.08;;
38085;SDS011;23896;50.678;10.924;2023-07-20T13:50:03;1.65;;;1.55;;
38085;SDS011;23896;50.678;10.924;2023-07-20T13:52:29;1.92;;;1.83;;
38085;SDS011;23896;50.678;10.924;2023-07-20T13:54:55;2.33;;;2.13;;
38085;SDS011;23896;50.678;10.924;2023-07-20T13:57:22;3.30;;;2.83;;
38085;SDS011;23896;50.678;10.924;2023-07-20T13:59:48;2.63;;;2.42;;
38085;SDS011;23896;50.678;10.924;2023-07-20T14:02:15;2.78;;;1.80;;
38085;SDS011;23896;50.678;10.924;2023-07-20T14:04:41;4.13;;;2.47;;
38085;SDS011;23896;50.678;10.924;2023-07-20T14:07:07;2.78;;;2.50;;
38085;SDS011;23896;50.678;10.924;2023-07-20T14:09:33;2.80;;;2.60;;
38085;SDS011;23896;50.678;10.924;2023-07-20T14:12:00;3.13;;;2.17;;
38085;SDS011;23896;50.678;10.924;2023-07-20T14:14:29;2.20;;;2.10;;
38085;SDS011;23896;50.678;10.924;2023-07-20T14:16:57;3.10;;;2.70;;
38085;SDS011;23896;50.678;10.924;2023-07-20T14:19:27;2.42;;;1.92;;
38085;SDS011;23896;50.678;10.924;2023-07-20T14:21:57;2.70;;;2.33;;
38085;SDS011;23896;50.678;10.924;2023-07-20T14:24:25;2.90;;;2.22;;
38085;SDS011;23896;50.678;10.924;2023-07-20T14:26:51;3.58;;;3.00;;
38085;SDS011;23896;50.678;10.924;2023-07-20T14:29:19;3.40;;;2.08;;
38085;SDS011;23896;50.678;10.924;2023-07-20T14:31:48;2.58;;;2.30;;
38085;SDS011;23896;50.678;10.924;2023-07-20T14:34:16;2.15;;;1.95;;
38085;SDS011;23896;50.678;10.924;2023-07-20T14:36:44;2.05;;;1.95;;
38085;SDS011;23896;50.678;10.924;2023-07-20T14:39:13;1.70;;;1.60;;
38085;SDS011;23896;50.678;10.924;2023-07-20T14:41:39;3.72;;;1.90;;
38085;SDS011;23896;50.678;10.924;2023-07-20T14:44:05;1.65;;;1.55;;
38085;SDS011;23896;50.678;10.924;2023-07-20T14:46:31;1.67;;;1.58;;
38085;SDS011;23896;50.678;10.924;2023-07-20T14:48:59;2.42;;;1.50;;
38085;SDS011;23896;50.678;10.924;2023-07-20T14:51:25;1.50;;;1.40;;
38085;SDS011;23896;50.678;10.924;2023-07-20T14:53:56;1.45;;;1.35;;
38085;SDS011;23896;50.678;10.924;2023-07-20T14:56:23;1.50;;;1.40;;
38085;SDS011;23896;50.678;10.924;2023-07-20T14:58:52;1.95;;;1.83;;
38085;SDS011;23896;50.678;10.924;2023-07-20T15:01:21;2.03;;;1.92;;
38085;SDS011;23896;50.678;10.924;2023-07-20T15:03:48;1.98;;;1.88;;
38085;SDS011;23896;50.678;10.924;2023-07-20T15:06:17;2.42;;;1.75;;
38085;SDS011;23896;50.678;10.924;2023-07-20T15:08:55;2.08;;;1.88;;
38085;SDS011;23896;50.678;10.924;2023-07-20T15:11:22;2.20;;;2.00;;
38085;SDS011;23896;50.678;10.924;2023-07-20T15:13:48;2.63;;;1.80;;
38085;SDS011;23896;50.678;10.924;2023-07-20T15:16:15;1.75;;;1.65;;
38085;SDS011;23896;50.678;10.924;2023-07-20T15:18:41;2.13;;;1.95;;
38085;SDS011;23896;50.678;10.924;2023-07-20T15:21:07;1.73;;;1.63;;
38085;SDS011;23896;50.678;10.924;2023-07-20T15:23:36;1.40;;;1.30;;
38085;SDS011;23896;50.678;10.924;2023-07-20T15:26:02;1.77;;;1.67;;
38085;SDS011;23896;50.678;10.924;2023-07-20T15:28:31;1.50;;;1.40;;
38085;SDS011;23896;50.678;10.924;2023-07-20T15:31:00;1.83;;;1.73;;
38085;SDS011;23896;50.678;10.924;2023-07-20T15:33:27;1.50;;;1.40;;
38085;SDS011;23896;50.678;10.924;2023-07-20T15:35:55;2.58;;;1.77;;
38085;SDS011;23896;50.678;10.924;2023-07-20T15:38:22;3.38;;;1.58;;
38085;SDS011;23896;50.678;10.924;2023-07-20T15:40:48;2.95;;;1.70;;
38085;SDS011;23896;50.678;10.924;2023-07-20T15:43:14;2.47;;;1.52;;
38085;SDS011;23896;50.678;10.924;2023-07-20T15:45:41;2.78;;;1.50;;
38085;SDS011;23896;50.678;10.924;2023-07-20T15:48:07;1.60;;;1.50;;
38085;SDS011;23896;50.678;10.924;2023-07-20T15:50:49;2.35;;;1.40;;
38085;SDS011;23896;50.678;10.924;2023-07-20T15:53:17;1.50;;;1.40;;
38085;SDS011;23896;50.678;10.924;2023-07-20T15:55:43;2.15;;;1.20;;
38085;SDS011;23896;50.678;10.924;2023-07-20T15:58:09;1.55;;;1.45;;
38085;SDS011;23896;50.678;10.924;2023-07-20T16:00:35;1.52;;;1.42;;
38085;SDS011;23896;50.678;10.924;2023-07-20T16:03:02;1.58;;;1.35;;
38085;SDS011;23896;50.678;10.924;2023-07-20T16:05:30;1.73;;;1.63;;
38085;SDS011;23896;50.678;10.924;2023-07-20T16:07:57;2.28;;;2.08;;
38085;SDS011;23896;50.678;10.924;2023-07-20T16:10:25;2.60;;;2.30;;
38085;SDS011;23896;50.678;10.924;2023-07-20T16:12:52;1.85;;;1.75;;
38085;SDS011;23896;50.678;10.924;2023-07-20T16:15:18;2.03;;;1.73;;
38085;SDS011;23896;50.678;10.924;2023-07-20T16:17:44;2.47;;;2.00;;
38085;SDS011;23896;50.678;10.924;2023-07-20T16:20:10;2.42;;;2.22;;
38085;SDS011;23896;50.678;10.924;2023-07-20T16:22:39;2.42;;;1.55;;
38085;SDS011;23896;50.678;10.924;2023-07-20T16:25:05;2.03;;;1.83;;
38085;SDS011;23896;50.678;10.924;2023-07-20T16:27:33;1.92;;;1.55;;
38085;SDS011;23896;50.678;10.924;2023-07-20T16:30:00;1.92;;;1.83;;
38085;SDS011;23896;50.678;10.924;2023-07-20T16:32:28;1.63;;;1.52;;
38085;SDS011;23896;50.678;10.924;2023-07-20T16:34:54;2.47;;;2.25;;
38085;SDS011;23896;50.678;10.924;2023-07-20T16:37:27;1.70;;;1.60;;